createdAt,value
2018-07-26T00:01:32.604Z,82.00
2018-07-26T00:04:01.259Z,81.60
2018-07-26T00:06:29.929Z,81.30
2018-07-26T00:08:58.519Z,81.20
2018-07-26T00:11:27.173Z,81.20
2018-07-26T00:13:55.828Z,81.70
2018-07-26T00:16:24.456Z,82.10
2018-07-26T00:18:53.122Z,82.60
2018-07-26T00:21:21.710Z,82.40
2018-07-26T00:23:50.314Z,82.30
2018-07-26T00:26:18.907Z,82.20
2018-07-26T00:28:47.493Z,82.30
2018-07-26T00:31:16.084Z,82.70
2018-07-26T00:33:44.675Z,82.80
2018-07-26T00:36:13.244Z,83.00
2018-07-26T00:38:41.868Z,82.90
2018-07-26T00:41:10.499Z,83.60
2018-07-26T00:43:39.105Z,83.80
2018-07-26T00:46:07.736Z,84.20
2018-07-26T00:48:36.431Z,84.30
2018-07-26T00:51:05.059Z,84.30
2018-07-26T00:53:33.705Z,84.00
2018-07-26T00:56:02.301Z,84.10
2018-07-26T00:58:30.904Z,84.40
2018-07-26T01:00:59.538Z,84.20
2018-07-26T01:03:28.255Z,84.60
2018-07-26T01:05:56.887Z,84.90
2018-07-26T01:08:25.490Z,85.00
2018-07-26T01:10:54.211Z,84.90
2018-07-26T01:13:22.796Z,84.80
2018-07-26T01:15:51.461Z,84.50
2018-07-26T01:18:20.108Z,84.90
2018-07-26T01:20:48.809Z,85.20
2018-07-26T01:23:17.432Z,85.40
2018-07-26T01:25:46.076Z,85.60
2018-07-26T01:28:14.894Z,85.60
2018-07-26T01:30:43.541Z,85.40
2018-07-26T01:33:12.270Z,85.60
2018-07-26T01:35:40.948Z,85.80
2018-07-26T01:38:09.695Z,86.00
2018-07-26T01:40:38.416Z,86.20
2018-07-26T01:43:47.612Z,86.20
2018-07-26T01:46:16.559Z,86.40
2018-07-26T01:48:45.330Z,86.20
2018-07-26T01:51:14.389Z,85.70
2018-07-26T01:53:43.684Z,85.40
2018-07-26T01:56:12.365Z,85.60
2018-07-26T01:58:41.012Z,86.40
2018-07-26T02:01:10.586Z,86.30
2018-07-26T02:03:39.588Z,86.70
2018-07-26T02:06:08.611Z,86.20
2018-07-26T02:08:37.265Z,86.40
2018-07-26T02:11:05.989Z,86.80
2018-07-26T02:13:34.890Z,86.60
2018-07-26T02:16:03.500Z,86.70
2018-07-26T02:18:32.156Z,86.50
2018-07-26T02:21:00.799Z,86.50
2018-07-26T02:23:29.428Z,86.60
2018-07-26T02:25:58.147Z,86.40
2018-07-26T02:28:26.772Z,86.40
2018-07-26T02:30:55.553Z,86.60
2018-07-26T02:33:24.056Z,86.70
2018-07-26T02:35:52.786Z,87.10
2018-07-26T02:38:21.356Z,87.10
2018-07-26T02:40:49.952Z,87.40
2018-07-26T02:43:18.513Z,87.60
2018-07-26T02:45:47.237Z,88.00
2018-07-26T02:48:15.917Z,88.10
2018-07-26T02:50:44.492Z,88.40
2018-07-26T02:53:13.104Z,88.30
2018-07-26T02:55:41.776Z,88.30
2018-07-26T02:58:10.393Z,88.30
2018-07-26T03:00:39.112Z,88.50
2018-07-26T03:03:07.854Z,88.70
2018-07-26T03:05:36.465Z,88.60
2018-07-26T03:08:05.169Z,88.30
2018-07-26T03:10:33.875Z,88.20
2018-07-26T03:13:02.458Z,88.10
2018-07-26T03:15:31.030Z,87.90
2018-07-26T03:17:59.647Z,87.80
2018-07-26T03:20:28.299Z,88.00
2018-07-26T03:22:56.882Z,88.00
2018-07-26T03:25:25.496Z,88.00
2018-07-26T03:27:54.155Z,88.10
2018-07-26T03:30:22.743Z,88.10
2018-07-26T03:32:51.410Z,87.90
2018-07-26T03:35:20.065Z,87.90
2018-07-26T03:37:48.766Z,88.10
2018-07-26T03:40:17.446Z,88.40
2018-07-26T03:42:46.078Z,88.30
2018-07-26T03:45:14.739Z,88.50
2018-07-26T03:47:43.323Z,88.70
2018-07-26T03:50:11.964Z,88.80
2018-07-26T03:52:40.637Z,88.60
2018-07-26T03:55:09.237Z,88.60
2018-07-26T03:57:37.896Z,88.70
2018-07-26T04:00:06.672Z,88.80
2018-07-26T04:02:35.350Z,88.90
2018-07-26T04:05:04.005Z,88.90
2018-07-26T04:07:32.688Z,89.10
2018-07-26T04:10:01.369Z,88.80
2018-07-26T04:12:30.042Z,89.10
2018-07-26T04:14:58.740Z,88.90
2018-07-26T04:17:27.363Z,89.30
2018-07-26T04:19:56.042Z,89.20
2018-07-26T04:22:24.661Z,88.90
2018-07-26T04:24:53.340Z,88.60
2018-07-26T04:27:21.944Z,88.70
2018-07-26T04:29:50.668Z,88.80
2018-07-26T04:32:19.436Z,88.70
2018-07-26T04:34:48.034Z,88.70
2018-07-26T04:37:16.705Z,88.90
2018-07-26T04:39:45.944Z,89.50
2018-07-26T04:42:14.592Z,89.50
2018-07-26T04:44:43.261Z,89.50
2018-07-26T04:47:11.952Z,89.50
2018-07-26T04:49:40.719Z,89.10
2018-07-26T04:52:09.412Z,88.70
2018-07-26T04:54:38.130Z,88.60
2018-07-26T04:57:06.752Z,88.50
2018-07-26T04:59:35.384Z,88.20
2018-07-26T05:02:04.121Z,88.10
2018-07-26T05:04:32.712Z,87.80
2018-07-26T05:07:01.276Z,87.10
2018-07-26T05:09:30.037Z,86.90
2018-07-26T05:11:58.679Z,86.80
2018-07-26T05:14:27.309Z,87.00
2018-07-26T05:16:56.029Z,87.20
2018-07-26T05:19:24.638Z,87.10
2018-07-26T05:21:53.395Z,86.80
2018-07-26T05:24:22.028Z,86.20
2018-07-26T05:26:54.069Z,85.80
2018-07-26T05:29:22.708Z,85.60
2018-07-26T05:31:51.325Z,85.20
2018-07-26T05:34:19.988Z,85.40
2018-07-26T05:36:48.625Z,85.10
2018-07-26T05:39:17.298Z,84.80
2018-07-26T05:41:45.849Z,84.80
2018-07-26T05:44:14.482Z,84.90
2018-07-26T05:46:43.029Z,84.50
2018-07-26T05:49:11.688Z,84.40
2018-07-26T05:51:40.300Z,84.40
2018-07-26T05:54:08.945Z,84.20
2018-07-26T05:56:37.621Z,83.60
2018-07-26T05:59:06.300Z,82.90
2018-07-26T06:01:34.945Z,82.60
2018-07-26T06:04:03.593Z,81.90
2018-07-26T06:06:32.218Z,81.60
2018-07-26T06:09:00.748Z,81.60
2018-07-26T06:11:29.463Z,81.50
2018-07-26T06:13:58.044Z,81.50
2018-07-26T06:16:26.617Z,81.40
2018-07-26T06:18:55.376Z,81.60
2018-07-26T06:21:24.024Z,81.30
2018-07-26T06:23:52.684Z,81.30
2018-07-26T06:26:21.304Z,81.10
2018-07-26T06:28:49.864Z,80.80
2018-07-26T06:31:18.781Z,80.80
2018-07-26T06:33:47.506Z,80.20
2018-07-26T06:36:16.101Z,79.60
2018-07-26T06:38:44.869Z,79.60
2018-07-26T06:41:13.480Z,79.60
2018-07-26T06:43:42.569Z,79.10
2018-07-26T06:46:11.176Z,79.10
2018-07-26T06:48:39.801Z,79.50
2018-07-26T06:51:08.452Z,79.80
2018-07-26T06:53:37.093Z,79.20
2018-07-26T06:56:06.111Z,78.70
2018-07-26T06:58:34.852Z,78.60
2018-07-26T07:01:03.478Z,78.40
2018-07-26T07:03:32.023Z,78.30
2018-07-26T07:06:00.642Z,78.00
2018-07-26T07:08:29.303Z,77.90
2018-07-26T07:10:57.928Z,77.80
2018-07-26T07:13:26.596Z,76.80
2018-07-26T07:15:55.193Z,76.30
2018-07-26T07:18:39.654Z,75.50
2018-07-26T07:21:08.284Z,74.50
2018-07-26T07:23:36.880Z,75.20
2018-07-26T07:26:07.790Z,75.70
2018-07-26T07:28:36.831Z,73.90
2018-07-26T07:31:05.604Z,72.60
2018-07-26T07:33:34.496Z,71.90
2018-07-26T07:36:03.323Z,71.20
2018-07-26T07:38:32.065Z,70.50
2018-07-26T07:41:00.716Z,70.00
2018-07-26T07:43:29.413Z,69.80
2018-07-26T07:45:58.093Z,69.40
2018-07-26T07:48:27.218Z,68.30
2018-07-26T07:50:58.379Z,67.90
2018-07-26T07:53:27.072Z,68.10
2018-07-26T07:55:55.816Z,66.90
2018-07-26T07:58:24.597Z,67.00
2018-07-26T08:00:54.921Z,66.00
2018-07-26T08:03:23.754Z,67.40
2018-07-26T08:05:52.637Z,65.20
2018-07-26T08:08:21.592Z,64.20
2018-07-26T08:10:50.328Z,65.50
2018-07-26T08:13:20.007Z,64.40
2018-07-26T08:15:48.666Z,65.10
2018-07-26T08:18:17.198Z,64.50
2018-07-26T08:20:46.010Z,64.20
2018-07-26T08:23:14.584Z,64.40
2018-07-26T08:25:43.143Z,62.70
2018-07-26T08:28:11.720Z,62.70
2018-07-26T08:31:03.203Z,61.90
2018-07-26T08:36:28.910Z,61.30
2018-07-26T08:38:57.539Z,60.80
2018-07-26T08:41:26.139Z,59.90
2018-07-26T08:43:54.736Z,61.60
2018-07-26T08:46:23.292Z,60.00
2018-07-26T08:48:51.900Z,59.40
2018-07-26T08:51:20.411Z,60.00
2018-07-26T08:53:49.040Z,60.30
2018-07-26T08:56:17.561Z,59.80
2018-07-26T08:58:46.112Z,59.60
2018-07-26T09:01:14.784Z,60.50
2018-07-26T09:03:43.588Z,59.40
2018-07-26T09:06:13.620Z,59.70
2018-07-26T09:08:42.264Z,60.00
2018-07-26T09:11:10.806Z,59.00
2018-07-26T09:13:39.464Z,57.70
2018-07-26T09:16:09.753Z,59.90
2018-07-26T09:18:38.420Z,58.60
2018-07-26T09:21:07.986Z,57.70
2018-07-26T09:23:36.622Z,59.00
2018-07-26T09:26:05.225Z,56.60
2018-07-26T09:28:33.761Z,56.80
2018-07-26T09:31:02.361Z,56.50
2018-07-26T09:33:30.985Z,56.50
2018-07-26T09:35:59.796Z,55.60
2018-07-26T09:38:28.405Z,56.50
2018-07-26T09:40:57.032Z,56.50
2018-07-26T09:43:25.617Z,55.70
2018-07-26T09:45:54.164Z,54.90
2018-07-26T09:48:22.740Z,54.00
2018-07-26T09:50:51.385Z,53.70
2018-07-26T09:53:19.932Z,53.40
2018-07-26T09:55:48.688Z,51.80
2018-07-26T10:01:33.249Z,50.70
2018-07-26T10:04:01.863Z,50.20
2018-07-26T10:06:30.400Z,50.20
2018-07-26T10:09:07.612Z,51.60
2018-07-26T10:11:36.197Z,49.60
2018-07-26T10:14:04.970Z,49.60
2018-07-26T10:16:33.488Z,48.80
2018-07-26T10:19:02.053Z,49.10
2018-07-26T10:21:30.729Z,49.60
2018-07-26T10:23:59.597Z,48.90
2018-07-26T10:26:28.172Z,48.10
2018-07-26T10:28:56.720Z,48.40
2018-07-26T10:31:25.242Z,48.40
2018-07-26T10:33:53.854Z,47.60
2018-07-26T10:36:22.604Z,46.00
2018-07-26T10:38:51.129Z,49.10
2018-07-26T10:41:19.763Z,48.00
2018-07-26T10:43:54.057Z,49.00
2018-07-26T10:46:24.597Z,48.10
2018-07-26T10:48:54.655Z,47.60
2018-07-26T10:51:23.268Z,48.30
2018-07-26T10:53:51.956Z,46.80
2018-07-26T10:56:20.540Z,46.40
2018-07-26T10:58:49.066Z,46.50
2018-07-26T11:01:18.111Z,46.10
2018-07-26T11:03:47.211Z,45.90
2018-07-26T11:06:15.792Z,46.20
2018-07-26T11:08:44.405Z,47.20
2018-07-26T11:11:13.020Z,47.30
2018-07-26T11:13:41.558Z,47.00
2018-07-26T11:16:10.140Z,47.30
2018-07-26T11:18:38.711Z,46.20
2018-07-26T11:21:07.304Z,46.50
2018-07-26T11:23:35.804Z,47.00
2018-07-26T11:26:04.426Z,45.90
2018-07-26T11:28:33.090Z,46.20
2018-07-26T11:31:01.723Z,46.10
2018-07-26T11:33:30.468Z,45.70
2018-07-26T11:35:59.089Z,47.40
2018-07-26T11:38:33.404Z,43.00
2018-07-26T11:41:05.924Z,45.60
2018-07-26T11:43:34.535Z,46.70
2018-07-26T11:46:03.072Z,46.40
2018-07-26T11:48:31.768Z,45.30
2018-07-26T11:51:00.456Z,46.80
2018-07-26T11:53:31.080Z,46.50
2018-07-26T11:55:59.711Z,46.50
2018-07-26T11:58:28.249Z,45.60
2018-07-26T12:00:56.848Z,44.30
2018-07-26T12:03:25.374Z,48.90
2018-07-26T12:05:53.945Z,45.60
2018-07-26T12:08:22.716Z,47.30
2018-07-26T12:10:51.389Z,45.20
2018-07-26T12:13:19.912Z,46.20
2018-07-26T12:15:48.467Z,44.80
2018-07-26T12:24:04.574Z,46.20
2018-07-26T12:26:33.179Z,46.00
2018-07-26T12:29:01.676Z,46.50
2018-07-26T12:31:30.180Z,45.90
2018-07-26T12:33:58.758Z,47.00
2018-07-26T12:36:27.503Z,46.50
2018-07-26T12:38:56.061Z,43.80
2018-07-26T12:41:24.641Z,46.60
2018-07-26T12:43:53.159Z,44.50
2018-07-26T12:46:21.796Z,46.00
2018-07-26T12:48:50.374Z,44.40
2018-07-26T12:51:18.888Z,45.30
2018-07-26T12:53:47.487Z,45.50
2018-07-26T12:56:16.057Z,46.10
2018-07-26T12:58:44.608Z,46.70
2018-07-26T13:01:13.238Z,46.10
2018-07-26T13:03:41.788Z,45.20
2018-07-26T13:06:10.397Z,45.40
2018-07-26T13:08:38.965Z,45.70
2018-07-26T13:11:07.600Z,45.70
2018-07-26T13:13:36.108Z,45.90
2018-07-26T13:16:04.724Z,47.10
2018-07-26T13:18:33.309Z,45.00
2018-07-26T13:21:02.049Z,44.00
2018-07-26T13:23:30.723Z,44.90
2018-07-26T13:25:59.272Z,43.60
2018-07-26T13:28:27.944Z,43.10
2018-07-26T13:30:56.639Z,41.70
2018-07-26T13:33:25.305Z,41.80
2018-07-26T13:35:53.986Z,42.80
2018-07-26T13:38:22.528Z,42.20
2018-07-26T13:40:51.148Z,42.10
2018-07-26T13:43:19.768Z,42.60
2018-07-26T13:45:48.388Z,41.90
2018-07-26T13:48:16.963Z,41.90
2018-07-26T13:50:45.508Z,39.90
2018-07-26T13:53:14.044Z,40.60
2018-07-26T13:55:42.616Z,40.50
2018-07-26T13:58:11.224Z,39.80
2018-07-26T14:00:39.800Z,38.60
2018-07-26T14:03:08.371Z,39.20
2018-07-26T14:05:36.940Z,38.80
2018-07-26T14:08:05.872Z,40.40
2018-07-26T14:10:34.412Z,40.00
2018-07-26T14:13:02.999Z,38.50
2018-07-26T14:15:31.630Z,39.90
2018-07-26T14:18:00.172Z,40.10
2018-07-26T14:23:38.869Z,39.60
2018-07-26T14:26:09.264Z,40.60
2018-07-26T14:28:37.821Z,40.60
2018-07-26T14:31:06.531Z,40.10
2018-07-26T14:33:35.133Z,40.00
2018-07-26T14:36:03.845Z,41.00
2018-07-26T14:38:32.492Z,38.50
2018-07-26T14:41:01.112Z,41.00
2018-07-26T14:43:29.721Z,39.60
2018-07-26T14:45:58.371Z,39.60
2018-07-26T14:48:26.935Z,39.50
2018-07-26T14:50:55.460Z,40.20
2018-07-26T14:53:24.136Z,40.40
2018-07-26T14:55:52.653Z,41.70
2018-07-26T14:58:21.296Z,39.30
2018-07-26T15:00:49.925Z,40.50
2018-07-26T15:03:18.488Z,39.90
2018-07-26T15:05:46.988Z,39.30
2018-07-26T15:08:15.602Z,41.30
2018-07-26T15:10:44.165Z,40.60
2018-07-26T15:13:12.741Z,39.90
2018-07-26T15:15:41.437Z,39.90
2018-07-26T15:18:09.895Z,39.40
2018-07-26T15:20:38.497Z,38.40
2018-07-26T15:23:07.102Z,39.40
2018-07-26T15:25:35.667Z,39.00
2018-07-26T15:28:04.168Z,39.90
2018-07-26T15:30:32.780Z,39.40
2018-07-26T15:33:01.290Z,40.10
2018-07-26T15:35:29.844Z,39.90
2018-07-26T15:37:58.349Z,39.40
2018-07-26T15:40:26.904Z,38.70
2018-07-26T15:42:55.460Z,40.70
2018-07-26T15:45:23.956Z,40.60
2018-07-26T15:47:52.404Z,39.40
2018-07-26T15:50:20.925Z,39.60
2018-07-26T15:52:49.525Z,39.00
2018-07-26T15:55:18.135Z,40.60
2018-07-26T15:57:46.604Z,40.10
2018-07-26T16:00:15.238Z,39.20
2018-07-26T16:02:43.794Z,39.80
2018-07-26T16:05:12.362Z,38.70
2018-07-26T16:07:40.956Z,39.80
2018-07-26T16:10:09.912Z,39.90
2018-07-26T16:12:38.652Z,40.20
2018-07-26T16:15:09.981Z,39.00
2018-07-26T16:17:38.603Z,39.40
2018-07-26T16:20:08.393Z,40.00
2018-07-26T16:22:36.856Z,39.20
2018-07-26T16:25:06.505Z,38.20
2018-07-26T16:27:35.100Z,39.50
2018-07-26T16:30:03.777Z,37.40
2018-07-26T16:32:32.288Z,38.90
2018-07-26T16:35:00.856Z,38.60
2018-07-26T16:37:29.404Z,39.60
2018-07-26T16:39:58.002Z,39.70
2018-07-26T16:42:26.546Z,39.30
2018-07-26T16:44:55.129Z,39.20
2018-07-26T16:47:23.660Z,39.30
2018-07-26T16:49:52.164Z,39.30
2018-07-26T16:52:20.777Z,38.90
2018-07-26T16:54:49.303Z,39.50
2018-07-26T16:57:17.940Z,39.90
2018-07-26T16:59:46.734Z,40.10
2018-07-26T17:02:15.495Z,39.70
2018-07-26T17:04:44.168Z,40.70
2018-07-26T17:07:13.328Z,41.20
2018-07-26T17:09:42.006Z,42.30
2018-07-26T17:12:10.869Z,42.20
2018-07-26T17:14:39.505Z,41.10
2018-07-26T17:17:08.240Z,41.40
2018-07-26T17:19:36.896Z,41.10
2018-07-26T17:22:05.474Z,41.40
2018-07-26T17:24:34.004Z,41.20
2018-07-26T17:27:02.561Z,41.80
2018-07-26T17:29:31.139Z,41.80
2018-07-26T17:31:59.684Z,41.80
2018-07-26T17:34:28.241Z,41.60
2018-07-26T17:36:56.800Z,41.20
2018-07-26T17:39:25.365Z,42.00
2018-07-26T17:41:53.900Z,41.70
2018-07-26T17:44:22.464Z,41.90
2018-07-26T17:46:51.072Z,41.80
2018-07-26T17:49:19.696Z,42.40
2018-07-26T17:51:48.271Z,42.20
2018-07-26T17:54:16.848Z,42.00
2018-07-26T17:56:45.435Z,42.60
2018-07-26T17:59:13.992Z,43.00
2018-07-26T18:01:42.576Z,42.50
2018-07-26T18:04:11.185Z,42.80
2018-07-26T18:06:39.780Z,43.50
2018-07-26T18:09:08.856Z,44.30
2018-07-26T18:11:37.412Z,44.60
2018-07-26T18:14:06.007Z,45.40
2018-07-26T18:16:34.603Z,45.90
2018-07-26T18:19:03.166Z,45.80
2018-07-26T18:21:31.705Z,46.50
2018-07-26T18:24:00.308Z,46.60
2018-07-26T18:26:28.874Z,46.50
2018-07-26T18:28:57.448Z,46.90
2018-07-26T18:31:26.366Z,47.10
2018-07-26T18:33:55.000Z,47.70
2018-07-26T18:36:23.520Z,48.80
2018-07-26T18:38:52.065Z,49.70
2018-07-26T18:41:20.627Z,51.20
2018-07-26T18:43:49.237Z,52.40
2018-07-26T18:46:17.765Z,53.80
2018-07-26T18:48:46.405Z,54.00
2018-07-26T18:51:14.969Z,54.80
2018-07-26T18:53:43.581Z,55.70
2018-07-26T18:56:12.185Z,56.20
2018-07-26T18:58:40.865Z,56.50
2018-07-26T19:01:09.452Z,57.00
2018-07-26T19:03:38.001Z,58.10
2018-07-26T19:06:06.678Z,58.60
2018-07-26T19:08:35.373Z,58.70
2018-07-26T19:11:03.984Z,58.60
2018-07-26T19:13:32.658Z,58.90
2018-07-26T19:16:02.790Z,59.20
2018-07-26T19:18:31.522Z,59.90
2018-07-26T19:21:01.201Z,60.70
2018-07-26T19:23:29.905Z,60.10
2018-07-26T19:25:58.538Z,60.80
2018-07-26T19:28:27.147Z,60.90
2018-07-26T19:30:55.776Z,60.90
2018-07-26T19:33:24.489Z,61.50
2018-07-26T19:35:53.165Z,61.40
2018-07-26T19:38:21.810Z,61.70
2018-07-26T19:40:50.492Z,62.10
2018-07-26T19:43:19.057Z,62.50
2018-07-26T19:45:47.769Z,63.10
2018-07-26T19:48:16.387Z,63.40
2018-07-26T19:50:47.387Z,64.30
2018-07-26T19:53:15.988Z,63.80
2018-07-26T19:55:44.556Z,64.10
2018-07-26T19:58:13.112Z,65.00
2018-07-26T20:00:41.734Z,65.10
2018-07-26T20:03:17.880Z,65.40
2018-07-26T20:05:46.484Z,65.50
2018-07-26T20:08:15.117Z,66.80
2018-07-26T20:10:43.780Z,67.90
2018-07-26T20:13:12.388Z,66.60
2018-07-26T20:15:42.660Z,67.60
2018-07-26T20:18:11.256Z,68.20
2018-07-26T20:20:39.868Z,68.50
2018-07-26T20:23:08.567Z,68.80
2018-07-26T20:25:41.624Z,69.40
2018-07-26T20:28:10.744Z,69.60
2018-07-26T20:30:39.385Z,68.00
2018-07-26T20:33:08.001Z,67.20
2018-07-26T20:35:36.599Z,67.80
2018-07-26T20:38:05.264Z,68.20
2018-07-26T20:40:33.891Z,68.80
2018-07-26T20:43:04.103Z,68.60
2018-07-26T20:45:32.696Z,68.70
2018-07-26T20:48:01.222Z,68.80
2018-07-26T20:50:29.964Z,69.40
2018-07-26T20:52:58.584Z,69.90
2018-07-26T20:55:27.237Z,69.90
2018-07-26T20:57:55.984Z,70.30
2018-07-26T21:00:24.598Z,71.10
2018-07-26T21:02:53.140Z,71.00
2018-07-26T21:05:21.879Z,70.90
2018-07-26T21:07:50.388Z,71.20
2018-07-26T21:10:19.038Z,71.70
2018-07-26T21:12:47.721Z,72.20
2018-07-26T21:15:16.348Z,72.40
2018-07-26T21:17:44.881Z,72.80
2018-07-26T21:20:13.508Z,73.10
2018-07-26T21:22:42.169Z,73.40
2018-07-26T21:25:10.874Z,73.00
2018-07-26T21:27:39.512Z,73.40
2018-07-26T21:30:08.281Z,73.10
2018-07-26T21:32:37.227Z,73.40
2018-07-26T21:35:06.800Z,73.90
2018-07-26T21:37:35.401Z,73.80
2018-07-26T21:40:04.713Z,74.40
2018-07-26T21:42:33.314Z,74.30
2018-07-26T21:45:01.981Z,74.80
2018-07-26T21:47:30.696Z,74.90
2018-07-26T21:49:59.241Z,75.00
2018-07-26T21:52:27.965Z,75.30
2018-07-26T21:54:56.610Z,75.00
2018-07-26T21:57:25.180Z,74.80
2018-07-26T21:59:53.714Z,75.50
2018-07-26T22:02:22.470Z,75.50
2018-07-26T22:04:51.182Z,75.50
2018-07-26T22:07:20.009Z,75.30
2018-07-26T22:09:48.634Z,75.40
2018-07-26T22:12:17.281Z,75.60
2018-07-26T22:14:45.948Z,75.90
2018-07-26T22:17:14.545Z,76.00
2018-07-26T22:19:43.192Z,75.80
2018-07-26T22:22:11.881Z,75.80
2018-07-26T22:24:40.420Z,76.00
2018-07-26T22:27:09.069Z,76.20
2018-07-26T22:29:37.780Z,76.40
2018-07-26T22:32:06.486Z,76.70
2018-07-26T22:34:35.101Z,76.90
2018-07-26T22:37:03.757Z,77.30
2018-07-26T22:39:32.485Z,77.90
2018-07-26T22:42:01.106Z,77.70
2018-07-26T22:44:29.788Z,77.70
2018-07-26T22:46:58.492Z,77.90
2018-07-26T22:49:27.119Z,78.10
2018-07-26T22:51:55.744Z,78.30
2018-07-26T22:54:24.358Z,78.30
2018-07-26T22:56:53.017Z,78.40
2018-07-26T22:59:21.683Z,78.20
2018-07-26T23:01:50.344Z,78.30
2018-07-26T23:04:18.968Z,78.30
2018-07-26T23:06:47.580Z,78.60
2018-07-26T23:09:16.261Z,78.60
2018-07-26T23:11:44.871Z,78.80
2018-07-26T23:14:13.525Z,79.20
2018-07-26T23:16:42.178Z,79.40
2018-07-26T23:19:10.836Z,79.30
2018-07-26T23:21:39.368Z,80.10
2018-07-26T23:24:08.081Z,80.00
2018-07-26T23:26:36.706Z,80.00
2018-07-26T23:29:05.511Z,80.00
2018-07-26T23:31:34.105Z,80.30
2018-07-26T23:34:02.876Z,80.20
2018-07-26T23:36:31.528Z,80.30
2018-07-26T23:39:00.161Z,80.80
2018-07-26T23:41:28.777Z,80.80
2018-07-26T23:43:57.384Z,80.70
2018-07-26T23:46:26.081Z,80.50
2018-07-26T23:48:54.700Z,80.80
2018-07-26T23:51:23.219Z,81.30
2018-07-26T23:53:51.860Z,81.60
2018-07-26T23:56:20.486Z,81.50
2018-07-26T23:58:49.131Z,81.50
